Time;durP1;ratioP1;P1;durP2;ratioP2;P2;SDS_P1;SDS_P2;PMS_P1;PMS_P2;Temp;Humidity;BMP_temperature;BMP_pressure;BME280_temperature;BME280_humidity;BME280_pressure;Samples;Min_cycle;Max_cycle;Signal;HPM_P1;HPM_P2
2022/01/13 00:01:29;;;;;;;59.00;25.35;;;;;;;3.33;83.28;103948.06;3589858;39;20052;-62
2022/01/13 00:03:55;;;;;;;59.95;27.50;;;;;;;3.35;83.38;103948.97;3592561;40;20125;-63
2022/01/13 00:06:21;;;;;;;66.68;22.90;;;;;;;3.37;83.31;103949.00;3587268;40;20052;-63
2022/01/13 00:08:46;;;;;;;58.35;23.38;;;;;;;3.34;83.47;103949.84;3587012;40;21726;-63
2022/01/13 00:11:12;;;;;;;53.75;23.35;;;;;;;3.27;83.84;103942.63;3589129;40;20048;-62
2022/01/13 00:14:20;;;;;;;49.58;23.50;;;;;;;3.24;83.51;103937.25;3586457;40;20081;-62
2022/01/13 00:19:20;;;;;;;54.05;24.38;;;;;;;3.26;83.46;103948.78;3588983;40;20048;-62
2022/01/13 00:24:45;;;;;;;54.25;24.10;;;;;;;3.27;83.64;103945.28;3581062;40;20050;-62
2022/01/13 00:27:13;;;;;;;47.50;22.23;;;;;;;3.24;83.30;103942.56;3587006;40;20065;-64
2022/01/13 00:29:42;;;;;;;47.53;23.33;;;;;;;3.24;83.22;103946.13;3589544;40;21883;-62
2022/01/13 00:32:12;;;;;;;52.22;22.05;;;;;;;3.25;82.69;103963.84;3585858;40;20044;-63
2022/01/13 00:34:38;;;;;;;62.67;21.38;;;;;;;3.15;82.91;103953.91;3589935;40;20044;-63
2022/01/13 00:37:04;;;;;;;45.20;23.38;;;;;;;3.02;83.28;103931.50;3587843;40;20047;-62
2022/01/13 00:39:30;;;;;;;53.38;22.60;;;;;;;3.18;83.28;103961.94;3588541;40;20049;-63
2022/01/13 00:41:55;;;;;;;51.35;23.48;;;;;;;3.18;83.43;103969.03;3585212;40;20056;-63
2022/01/13 00:44:21;;;;;;;50.75;23.50;;;;;;;3.10;83.32;103947.59;3587653;40;20048;-64
2022/01/13 00:46:57;;;;;;;49.00;21.65;;;;;;;2.91;83.38;103909.13;3585980;40;20055;-63
2022/01/13 00:49:23;;;;;;;61.00;23.23;;;;;;;3.17;83.66;103951.25;3586439;40;20048;-61
2022/01/13 00:51:50;;;;;;;58.35;23.67;;;;;;;3.13;83.22;103941.44;3587223;40;20048;-63
2022/01/13 00:54:15;;;;;;;52.40;23.70;;;;;;;3.03;83.06;103922.66;3587307;40;20111;-62
2022/01/13 00:56:41;;;;;;;67.22;23.38;;;;;;;3.15;83.93;103947.72;3577751;40;20367;-62
2022/01/13 00:59:14;;;;;;;65.30;22.67;;;;;;;3.12;83.16;103952.97;3587315;40;20375;-62
2022/01/13 01:01:46;;;;;;;53.60;23.23;;;;;;;3.12;83.53;103947.66;3587954;39;20395;-63
2022/01/13 01:04:13;;;;;;;57.65;23.35;;;;;;;3.06;83.12;103936.91;3586663;40;20129;-62
2022/01/13 01:06:40;;;;;;;48.10;21.75;;;;;;;3.10;83.53;103934.31;3588933;40;20061;-62
2022/01/13 01:09:14;;;;;;;40.78;21.63;;;;;;;3.10;83.36;103939.63;3586680;40;20052;-63
2022/01/13 01:11:40;;;;;;;53.28;21.83;;;;;;;2.99;82.73;103926.13;3587899;40;20051;-62
2022/01/13 01:14:07;;;;;;;42.00;21.15;;;;;;;3.04;82.89;103934.19;3583205;40;20120;-62
2022/01/13 01:16:36;;;;;;;46.70;20.33;;;;;;;3.04;83.16;103939.50;3586789;40;20044;-63
2022/01/13 01:19:07;;;;;;;38.72;20.40;;;;;;;2.98;82.98;103932.34;3587483;40;20044;-63
2022/01/13 01:22:13;;;;;;;42.97;22.45;;;;;;;3.00;82.50;103941.22;3586452;40;20409;-62
2022/01/13 01:26:52;;;;;;;48.13;23.70;;;;;;;2.94;83.03;103933.13;3589982;40;20076;-63
2022/01/13 01:29:35;;;;;;;55.00;30.13;;;;;;;3.01;83.11;103940.38;3588587;40;20393;-63
2022/01/13 01:32:05;;;;;;;43.92;21.80;;;;;;;2.96;83.33;103936.72;3592972;40;20056;-62
2022/01/13 01:36:59;;;;;;;49.70;22.38;;;;;;;3.02;83.46;103935.94;3587886;40;20032;-64
2022/01/13 01:39:25;;;;;;;43.28;22.50;;;;;;;2.90;83.22;103920.63;3579735;40;20052;-63
2022/01/13 01:41:54;;;;;;;43.78;19.92;;;;;;;3.03;83.35;103943.94;3586491;40;20044;-63
2022/01/13 01:44:35;;;;;;;57.78;28.95;;;;;;;3.09;82.73;103947.59;3587612;40;20048;-62
2022/01/13 01:47:01;;;;;;;37.55;20.08;;;;;;;3.00;82.65;103933.25;3589431;40;20052;-64
2022/01/13 01:49:31;;;;;;;35.92;17.80;;;;;;;3.04;82.34;103939.50;3586743;40;20087;-61
2022/01/13 01:52:00;;;;;;;37.40;17.60;;;;;;;2.98;82.48;103935.00;3586731;40;20054;-63
2022/01/13 01:54:29;;;;;;;33.55;17.15;;;;;;;2.95;82.75;103934.94;3592128;40;20048;-62
2022/01/13 01:56:56;;;;;;;38.10;18.35;;;;;;;2.85;82.53;103922.28;3586038;40;20054;-61
2022/01/13 01:59:27;;;;;;;38.67;16.08;;;;;;;2.82;82.65;103927.53;3587230;40;20078;-62
2022/01/13 02:01:53;;;;;;;33.33;15.90;;;;;;;2.78;82.61;103925.69;3589254;40;20049;-62
2022/01/13 02:04:22;;;;;;;35.58;16.08;;;;;;;2.81;83.05;103931.09;3587022;40;20052;-62
2022/01/13 02:06:48;;;;;;;32.13;15.30;;;;;;;2.81;82.90;103923.13;3585468;40;20056;-62
2022/01/13 02:09:18;;;;;;;35.72;17.67;;;;;;;2.87;82.90;103925.00;3587718;40;20088;-62
2022/01/13 02:11:48;;;;;;;34.22;15.80;;;;;;;2.85;83.57;103926.72;3579231;40;20064;-63
2022/01/13 02:17:13;;;;;;;29.75;15.57;;;;;;;2.84;83.70;103922.28;3585001;40;20089;-63
2022/01/13 02:19:45;;;;;;;41.72;16.83;;;;;;;2.86;82.88;103939.16;3585202;40;20110;-62
2022/01/13 02:22:11;;;;;;;37.90;16.13;;;;;;;2.87;83.07;103941.84;3586452;40;20083;-62
2022/01/13 02:24:37;;;;;;;40.50;16.60;;;;;;;2.78;82.79;103931.91;3587621;40;20064;-63
2022/01/13 02:27:06;;;;;;;33.15;16.15;;;;;;;2.76;82.59;103940.75;3586909;40;20094;-61
2022/01/13 02:29:32;;;;;;;33.13;15.85;;;;;;;2.84;83.38;103947.09;3589061;39;20384;-62
2022/01/13 02:31:58;;;;;;;31.45;15.90;;;;;;;2.86;83.25;103953.34;3589241;40;20382;-63
2022/01/13 02:34:24;;;;;;;40.15;15.60;;;;;;;2.77;82.94;103945.16;3587993;40;20104;-62
2022/01/13 02:36:54;;;;;;;31.88;15.98;;;;;;;2.83;83.24;103934.69;3587124;40;20149;-62
2022/01/13 02:39:22;;;;;;;29.88;15.23;;;;;;;2.84;83.42;103936.47;3589053;40;20059;-62
2022/01/13 02:41:48;;;;;;;44.38;16.33;;;;;;;2.65;82.93;103889.13;3587542;40;20115;-62
2022/01/13 02:44:18;;;;;;;43.65;16.65;;;;;;;2.88;83.49;103940.97;3587469;40;20063;-62
2022/01/13 02:49:23;;;;;;;39.92;15.65;;;;;;;2.65;83.22;103887.38;3587549;40;20041;-63
2022/01/13 02:51:53;;;;;;;35.40;16.33;;;;;;;2.94;83.22;103938.44;3621449;22;20272;-63
2022/01/13 02:54:20;;;;;;;38.70;15.63;;;;;;;2.93;83.37;103931.34;3584446;40;20430;-63
2022/01/13 02:56:46;;;;;;;37.97;16.95;;;;;;;2.91;83.05;103938.38;3586359;40;20121;-63
2022/01/13 02:59:13;;;;;;;38.05;16.60;;;;;;;2.93;82.75;103939.31;3586240;40;20053;-63
2022/01/13 03:01:41;;;;;;;35.90;18.10;;;;;;;2.94;83.82;103938.44;3578500;40;20048;-62
2022/01/13 03:04:08;;;;;;;38.00;17.08;;;;;;;2.94;82.80;103946.41;3577508;40;20126;-63
2022/01/13 03:06:39;;;;;;;33.70;16.55;;;;;;;2.95;83.40;103942.91;3577677;40;20067;-64
2022/01/13 03:09:09;;;;;;;32.22;16.85;;;;;;;2.96;83.43;103935.81;3578473;40;20053;-63
2022/01/13 03:11:37;;;;;;;39.08;17.23;;;;;;;2.97;83.44;103930.50;3576999;40;20054;-62
2022/01/13 03:14:10;;;;;;;34.38;17.05;;;;;;;3.00;83.07;103925.25;3578064;40;20127;-62
2022/01/13 03:16:38;;;;;;;40.90;17.02;;;;;;;3.02;83.42;103925.31;3578884;40;20577;-61
2022/01/13 03:19:04;;;;;;;46.28;18.33;;;;;;;3.01;83.10;103916.44;3579972;40;20087;-61
2022/01/13 03:21:30;;;;;;;35.15;18.45;;;;;;;2.99;82.79;103915.50;3576507;40;20068;-63
2022/01/13 03:23:55;;;;;;;37.00;18.02;;;;;;;3.02;83.06;103914.69;3577723;40;20057;-61
2022/01/13 03:26:22;;;;;;;41.42;19.02;;;;;;;2.95;82.93;103908.34;3580753;40;20052;-61
2022/01/13 03:29:04;;;;;;;59.13;18.92;;;;;;;2.97;83.00;103914.56;3579188;40;20049;-61
2022/01/13 03:31:30;;;;;;;56.33;19.27;;;;;;;2.95;83.55;103918.97;3581924;40;20078;-61
2022/01/13 03:33:55;;;;;;;45.78;18.95;;;;;;;2.96;83.30;103911.91;3576871;40;20108;-61
2022/01/13 03:36:21;;;;;;;51.85;20.55;;;;;;;2.97;83.90;103919.88;3579590;40;20422;-60
2022/01/13 03:38:47;;;;;;;50.33;21.40;;;;;;;2.98;83.96;103918.13;3576995;40;20065;-61
2022/01/13 03:41:14;;;;;;;46.83;20.80;;;;;;;2.97;83.68;103919.88;3575327;40;20052;-61
2022/01/13 03:43:40;;;;;;;48.78;20.23;;;;;;;3.00;83.54;103917.28;3575955;40;20049;-62
2022/01/13 03:46:07;;;;;;;49.08;21.40;;;;;;;2.98;83.02;103918.13;3576426;40;20055;-62
2022/01/13 03:48:33;;;;;;;50.05;21.73;;;;;;;2.97;83.20;103911.91;3577063;40;20061;-61
2022/01/13 03:50:59;;;;;;;52.63;21.52;;;;;;;2.97;82.89;103911.91;3579784;40;20434;-61
2022/01/13 03:53:31;;;;;;;40.58;19.75;;;;;;;2.93;82.74;103915.38;3576818;40;20052;-61
2022/01/13 03:56:56;;;;;;;50.20;21.35;;;;;;;2.89;83.66;103913.56;3575551;40;20086;-61
2022/01/13 03:59:41;;;;;;;61.30;21.20;;;;;;;2.88;83.07;103911.72;3575776;40;20048;-61
2022/01/13 04:02:14;;;;;;;44.92;21.35;;;;;;;2.83;83.54;103905.44;3579804;40;20441;-62
2022/01/13 04:04:47;;;;;;;51.97;22.02;;;;;;;2.86;83.64;103913.47;3575324;40;20052;-61
2022/01/13 04:07:23;;;;;;;48.35;21.67;;;;;;;2.80;82.85;103905.38;3575371;40;20058;-61
2022/01/13 04:09:48;;;;;;;51.50;22.13;;;;;;;2.81;83.19;103907.16;3580940;40;20053;-61
2022/01/13 04:12:15;;;;;;;51.17;22.65;;;;;;;2.53;83.64;103865.88;3580963;40;20281;-61
2022/01/13 04:17:15;;;;;;;56.63;23.55;;;;;;;2.81;83.35;103904.50;3579918;40;20044;-61
2022/01/13 04:19:42;;;;;;;52.85;23.25;;;;;;;2.81;84.17;103893.88;3577568;40;20072;-60
2022/01/13 04:22:10;;;;;;;62.72;22.77;;;;;;;2.86;83.68;103892.22;3577699;40;20044;-61
2022/01/13 04:24:38;;;;;;;62.15;22.70;;;;;;;2.85;83.69;103901.03;3577885;40;20064;-61
2022/01/13 04:27:08;;;;;;;58.75;24.15;;;;;;;2.89;84.15;103902.91;3579328;40;20403;-61
2022/01/13 04:29:36;;;;;;;56.35;23.58;;;;;;;2.91;84.21;103906.47;3578578;40;20055;-61
2022/01/13 04:32:05;;;;;;;49.95;23.17;;;;;;;2.89;83.83;103900.25;3579612;40;20049;-61
2022/01/13 04:34:32;;;;;;;72.68;24.60;;;;;;;2.91;83.80;103901.16;3578727;40;20284;-61
2022/01/13 04:36:59;;;;;;;67.28;24.17;;;;;;;2.91;83.30;103901.16;3581033;40;20110;-61
2022/01/13 04:39:27;;;;;;;59.15;23.25;;;;;;;2.93;83.34;103902.09;3577836;40;20356;-61
2022/01/13 04:41:54;;;;;;;69.75;23.95;;;;;;;2.90;83.23;103894.06;3582033;40;20150;-61
2022/01/13 04:44:23;;;;;;;56.97;23.42;;;;;;;2.90;83.22;103894.06;3576773;40;20129;-61
2022/01/13 04:46:53;;;;;;;107.68;25.60;;;;;;;2.88;83.06;103895.78;3578309;40;20056;-61
2022/01/13 04:49:20;;;;;;;63.08;24.25;;;;;;;2.71;83.33;103863.59;3576979;40;20062;-61
2022/01/13 04:51:49;;;;;;;72.50;22.10;;;;;;;2.85;82.91;103897.50;3577248;40;20383;-61
2022/01/13 04:54:16;;;;;;;66.00;21.77;;;;;;;2.81;82.79;103893.88;3574345;40;20079;-61
2022/01/13 04:57:02;;;;;;;61.53;23.70;;;;;;;2.83;83.43;103892.16;3579653;40;20065;-61
2022/01/13 04:59:28;;;;;;;64.03;23.70;;;;;;;2.82;83.82;103893.00;3575296;40;20395;-63
2022/01/13 05:01:54;;;;;;;82.63;24.08;;;;;;;2.81;83.64;103893.88;3579291;40;20072;-61
2022/01/13 05:04:21;;;;;;;62.78;23.55;;;;;;;2.82;82.97;103890.34;3575431;40;20060;-63
2022/01/13 05:06:47;;;;;;;65.97;22.27;;;;;;;2.80;83.27;103889.44;3581262;40;20048;-61
2022/01/13 05:09:12;;;;;;;58.58;21.63;;;;;;;2.77;82.96;103889.38;3575097;40;20603;-61
2022/01/13 05:11:38;;;;;;;58.35;23.10;;;;;;;2.76;83.60;103884.94;3576277;40;20060;-61
2022/01/13 05:14:04;;;;;;;66.45;24.58;;;;;;;2.74;83.88;103884.00;3578087;40;20047;-61
2022/01/13 05:16:49;;;;;;;67.45;25.27;;;;;;;2.80;84.27;103892.09;3576861;40;20271;-61
2022/01/13 05:19:20;;;;;;;60.05;23.75;;;;;;;2.83;84.18;103889.50;3577922;40;20057;-61
2022/01/13 05:24:12;;;;;;;65.90;24.95;;;;;;;2.77;83.62;103878.75;3578085;40;20049;-62
2022/01/13 05:26:38;;;;;;;65.70;23.92;;;;;;;2.86;83.51;103892.22;3577742;40;20052;-61
2022/01/13 05:29:04;;;;;;;58.20;24.70;;;;;;;2.82;83.63;103893.00;3579699;40;20057;-61
2022/01/13 05:31:30;;;;;;;80.20;24.30;;;;;;;2.81;83.30;103893.00;3578325;40;20117;-61
2022/01/13 05:33:55;;;;;;;76.20;23.42;;;;;;;2.79;83.89;103895.59;3575700;40;20315;-61
2022/01/13 05:36:21;;;;;;;69.15;23.08;;;;;;;2.81;83.36;103895.66;3575738;40;20059;-61
2022/01/13 05:38:47;;;;;;;66.80;24.40;;;;;;;2.80;83.65;103892.09;3574903;40;20060;-62
2022/01/13 05:41:14;;;;;;;71.93;24.65;;;;;;;2.72;83.85;103880.41;3577504;40;20384;-61
2022/01/13 05:43:39;;;;;;;82.72;26.38;;;;;;;2.82;83.95;103887.69;3578735;40;20063;-61
2022/01/13 05:46:05;;;;;;;68.00;25.50;;;;;;;2.81;83.80;103891.22;3579511;40;20484;-60
2022/01/13 05:48:31;;;;;;;73.90;25.42;;;;;;;2.81;83.68;103885.91;3577778;40;20048;-60
2022/01/13 05:50:59;;;;;;;76.32;26.70;;;;;;;2.82;84.23;103895.66;3574760;40;20092;-61
2022/01/13 05:53:25;;;;;;;72.55;28.10;;;;;;;2.87;84.08;103898.44;3578472;40;20072;-60
2022/01/13 05:55:51;;;;;;;68.85;25.52;;;;;;;2.89;84.09;103907.34;3578288;40;20537;-61
2022/01/13 05:58:16;;;;;;;69.53;27.40;;;;;;;2.92;83.76;103896.78;3576837;40;20060;-60
2022/01/13 06:00:42;;;;;;;84.50;26.63;;;;;;;2.86;83.70;103886.03;3576538;40;20055;-61
2022/01/13 06:03:09;;;;;;;71.88;26.15;;;;;;;2.94;83.84;103900.34;3581375;40;20056;-60
2022/01/13 06:05:35;;;;;;;68.40;26.25;;;;;;;2.95;83.69;103897.72;3579234;40;20060;-60
2022/01/13 06:08:01;;;;;;;70.78;25.92;;;;;;;2.93;83.91;103898.56;3583600;40;20417;-61
2022/01/13 06:10:27;;;;;;;68.30;24.58;;;;;;;2.62;83.01;103838.63;3581509;40;20060;-60
2022/01/13 06:12:54;;;;;;;62.03;24.42;;;;;;;2.91;83.44;103890.53;3582355;40;20391;-61
2022/01/13 06:15:23;;;;;;;64.55;22.17;;;;;;;2.97;82.83;103900.41;3580807;40;20370;-61
2022/01/13 06:17:54;;;;;;;76.38;24.10;;;;;;;2.91;82.87;103887.00;3583328;40;20049;-60
2022/01/13 06:20:21;;;;;;;76.35;24.02;;;;;;;2.89;82.81;103894.94;3576047;40;20055;-60
2022/01/13 06:22:50;;;;;;;71.07;24.40;;;;;;;2.88;84.00;103895.78;3581690;40;20063;-60
2022/01/13 06:25:18;;;;;;;85.55;24.38;;;;;;;2.77;82.71;103865.47;3576823;40;20053;-60
2022/01/13 06:27:44;;;;;;;79.55;25.02;;;;;;;2.77;83.40;103873.44;3579136;40;20060;-61
2022/01/13 06:30:14;;;;;;;73.70;25.52;;;;;;;2.85;83.63;103881.56;3577753;40;20076;-60
2022/01/13 06:32:41;;;;;;;64.72;25.75;;;;;;;2.83;83.72;103881.53;3579665;40;20099;-61
2022/01/13 06:35:08;;;;;;;72.72;24.23;;;;;;;2.80;83.30;103876.16;3576754;40;20383;-61
2022/01/13 06:37:33;;;;;;;62.05;24.13;;;;;;;2.88;83.35;103874.53;3577292;40;20056;-61
2022/01/13 06:40:01;;;;;;;61.88;24.23;;;;;;;2.87;83.91;103875.41;3577781;40;20787;-61
2022/01/13 06:42:28;;;;;;;70.45;24.00;;;;;;;2.86;83.55;103880.72;3580556;40;20074;-60
2022/01/13 06:44:53;;;;;;;78.53;24.35;;;;;;;2.87;83.69;103877.19;3577379;40;20197;-61
2022/01/13 06:47:19;;;;;;;71.80;22.13;;;;;;;2.85;83.46;103879.78;3578061;40;20057;-61
2022/01/13 06:49:44;;;;;;;77.72;21.70;;;;;;;2.76;83.58;103879.63;3577862;40;20071;-61
2022/01/13 06:52:10;;;;;;;80.13;22.05;;;;;;;2.82;84.00;103885.03;3579380;40;20060;-61
2022/01/13 06:54:36;;;;;;;71.05;21.80;;;;;;;2.64;83.53;103852.84;3578504;40;20088;-61
2022/01/13 06:57:02;;;;;;;79.15;21.45;;;;;;;2.82;83.50;103889.47;3577671;40;20430;-61
2022/01/13 06:59:28;;;;;;;87.22;22.42;;;;;;;2.79;84.03;103887.63;3578273;40;20055;-61
2022/01/13 07:01:56;;;;;;;105.65;21.80;;;;;;;2.80;83.76;103886.78;3576945;40;20055;-62
2022/01/13 07:04:21;;;;;;;57.50;22.25;;;;;;;2.82;84.15;103890.34;3578206;40;20048;-63
2022/01/13 07:06:47;;;;;;;75.95;22.77;;;;;;;2.84;84.74;103883.31;3576993;40;20059;-61
2022/01/13 07:09:17;;;;;;;96.40;23.17;;;;;;;2.82;84.29;103885.03;3582207;40;20446;-61
2022/01/13 07:11:44;;;;;;;65.53;23.08;;;;;;;2.85;84.06;103885.09;3577252;40;20096;-61
2022/01/13 07:14:10;;;;;;;85.88;22.90;;;;;;;2.88;84.74;103882.50;3582224;40;20306;-61
2022/01/13 07:16:37;;;;;;;67.43;24.27;;;;;;;2.86;84.19;103880.72;3575920;40;20055;-61
2022/01/13 07:19:08;;;;;;;65.30;22.83;;;;;;;2.88;83.85;103879.84;3580708;40;20065;-61
2022/01/13 07:21:34;;;;;;;62.97;22.90;;;;;;;2.90;83.99;103879.91;3579775;40;20056;-61
2022/01/13 07:24:00;;;;;;;77.75;22.92;;;;;;;2.82;84.24;103874.41;3583081;40;20068;-61
2022/01/13 07:26:26;;;;;;;62.83;22.08;;;;;;;2.91;83.94;103895.84;3581843;40;20064;-60
2022/01/13 07:28:51;;;;;;;77.30;23.42;;;;;;;2.92;84.45;103891.47;3582998;40;20129;-63
2022/01/13 07:31:17;;;;;;;66.18;21.50;;;;;;;2.93;84.15;103888.81;3582897;40;20078;-62
2022/01/13 07:33:43;;;;;;;65.15;21.10;;;;;;;2.91;84.49;103893.19;3570906;40;20056;-63
2022/01/13 07:36:10;;;;;;;69.78;20.85;;;;;;;2.86;84.06;103875.41;3576997;40;20141;-63
2022/01/13 07:38:36;;;;;;;76.43;23.27;;;;;;;2.79;84.29;103863.72;3578728;40;20054;-63
2022/01/13 07:41:02;;;;;;;65.15;22.45;;;;;;;2.93;84.03;103888.81;3578032;40;20056;-63
2022/01/13 07:43:28;;;;;;;60.42;22.42;;;;;;;2.95;84.12;103891.50;3577418;40;20063;-63
2022/01/13 07:45:54;;;;;;;54.25;21.05;;;;;;;2.83;83.95;103865.59;3576155;40;20056;-63
2022/01/13 07:48:21;;;;;;;78.68;21.45;;;;;;;2.97;84.04;103885.34;3580373;40;20046;-63
2022/01/13 07:50:48;;;;;;;65.28;22.60;;;;;;;2.85;84.69;103862.97;3578284;40;20051;-63
2022/01/13 07:53:15;;;;;;;66.50;22.48;;;;;;;3.02;84.28;103891.66;3575157;40;20053;-63
2022/01/13 07:55:42;;;;;;;62.95;21.55;;;;;;;3.02;84.43;103898.75;3578509;40;20040;-63
2022/01/13 07:58:09;;;;;;;59.15;20.63;;;;;;;3.02;83.86;103902.28;3574695;40;20058;-63
2022/01/13 08:00:34;;;;;;;55.50;21.77;;;;;;;2.95;84.41;103889.75;3578904;40;20052;-63
2022/01/13 08:03:00;;;;;;;71.75;22.42;;;;;;;2.86;84.54;103873.63;3575677;40;20086;-63
2022/01/13 08:05:26;;;;;;;50.95;19.83;;;;;;;3.00;84.40;103903.13;3580653;40;20339;-63
2022/01/13 08:07:52;;;;;;;68.32;21.55;;;;;;;2.33;83.69;103789.38;3577863;40;20048;-63
2022/01/13 08:10:17;;;;;;;60.03;22.13;;;;;;;3.06;84.95;103902.34;3579056;40;20056;-63
2022/01/13 08:12:43;;;;;;;58.80;21.25;;;;;;;2.73;84.37;103845.06;3578308;40;20086;-63
2022/01/13 08:15:13;;;;;;;60.88;21.08;;;;;;;3.04;84.26;103904.94;3578843;40;20053;-63
2022/01/13 08:20:33;;;;;;;79.40;21.58;;;;;;;3.08;84.48;103914.81;3580940;40;20413;-64
2022/01/13 08:22:59;;;;;;;75.97;22.90;;;;;;;3.11;84.75;103913.94;3578040;40;20064;-64
2022/01/13 08:25:27;;;;;;;63.47;20.23;;;;;;;3.12;84.24;103907.78;3579373;40;20087;-64
2022/01/13 08:27:53;;;;;;;64.38;20.38;;;;;;;3.09;84.36;103905.06;3580464;40;20092;-64
2022/01/13 08:30:20;;;;;;;69.78;20.73;;;;;;;3.08;84.48;103913.91;3581368;40;20375;-64
2022/01/13 08:32:46;;;;;;;53.72;22.25;;;;;;;3.12;84.72;103921.97;3578441;40;20392;-64
2022/01/13 08:35:12;;;;;;;55.00;21.85;;;;;;;3.14;84.52;103919.31;3578680;40;20048;-64
2022/01/13 08:37:39;;;;;;;64.55;22.42;;;;;;;3.13;84.28;103938.78;3581233;40;20048;-64
2022/01/13 08:40:11;;;;;;;70.75;22.30;;;;;;;3.14;84.56;103929.94;3577478;40;20390;-63
2022/01/13 08:42:37;;;;;;;58.53;21.77;;;;;;;3.06;84.09;103910.31;3574311;40;20064;-63
2022/01/13 08:45:07;;;;;;;72.00;22.35;;;;;;;3.14;84.81;103916.66;3574901;40;20056;-63
2022/01/13 08:47:33;;;;;;;58.65;21.25;;;;;;;3.19;84.16;103922.97;3578320;40;20052;-63
2022/01/13 08:49:58;;;;;;;78.07;22.88;;;;;;;3.21;84.39;103923.91;3577173;40;20068;-63
2022/01/13 08:52:24;;;;;;;70.20;22.67;;;;;;;3.17;84.61;103908.75;3622633;22;20055;-66
2022/01/13 08:54:55;;;;;;;71.93;22.20;;;;;;;3.25;84.63;103931.06;3590081;40;20071;-63
2022/01/13 08:57:22;;;;;;;59.50;21.40;;;;;;;3.28;84.46;103933.78;3588020;40;20049;-63
2022/01/13 08:59:48;;;;;;;65.65;21.50;;;;;;;3.22;84.51;103921.25;3585390;40;20060;-64
2022/01/13 09:02:14;;;;;;;59.35;21.50;;;;;;;3.23;84.41;103917.72;3586208;40;20062;-63
2022/01/13 09:04:40;;;;;;;55.00;21.45;;;;;;;3.27;84.49;103929.34;3582360;40;20067;-63
2022/01/13 09:07:06;;;;;;;72.18;22.73;;;;;;;3.27;84.59;103934.66;3583114;40;20055;-63
2022/01/13 09:09:31;;;;;;;80.00;23.05;;;;;;;3.36;84.30;103942.81;3584267;40;20132;-63
2022/01/13 09:11:57;;;;;;;64.20;21.40;;;;;;;3.24;84.08;103923.97;3583027;40;20052;-65
2022/01/13 09:14:26;;;;;;;60.63;22.00;;;;;;;3.34;84.70;103938.31;3582253;40;20390;-63
2022/01/13 09:16:54;;;;;;;63.25;22.45;;;;;;;3.37;84.38;103938.38;3578278;40;20368;-63
2022/01/13 09:19:19;;;;;;;64.03;22.35;;;;;;;3.40;84.09;103947.31;3582631;40;20280;-62
2022/01/13 09:21:47;;;;;;;86.57;22.02;;;;;;;3.41;84.14;103948.19;3580855;40;20059;-63
2022/01/13 09:24:17;;;;;;;69.97;21.95;;;;;;;3.39;84.15;103956.13;3579806;40;20052;-62
2022/01/13 09:26:44;;;;;;;66.63;22.45;;;;;;;3.41;84.41;103957.06;3581736;40;20068;-62
2022/01/13 09:29:12;;;;;;;56.92;21.95;;;;;;;3.40;84.52;103955.28;3581848;40;20048;-63
2022/01/13 09:31:40;;;;;;;63.03;22.20;;;;;;;3.40;84.31;103947.31;3571486;40;20064;-62
2022/01/13 09:34:08;;;;;;;56.13;21.52;;;;;;;3.42;84.01;103947.31;3581152;40;20125;-63
2022/01/13 09:36:35;;;;;;;74.60;21.52;;;;;;;3.41;84.01;103957.06;3578405;40;20064;-63
2022/01/13 09:39:05;;;;;;;66.43;21.23;;;;;;;3.36;83.52;103942.81;3582601;40;20058;-64
2022/01/13 09:41:33;;;;;;;58.53;21.48;;;;;;;3.43;83.96;103962.41;3580757;40;20131;-62
2022/01/13 09:44:04;;;;;;;56.78;20.33;;;;;;;3.46;84.74;103957.16;3581432;40;20077;-62
2022/01/13 09:46:31;;;;;;;69.28;22.80;;;;;;;3.45;84.56;103956.22;3581560;40;20256;-63
2022/01/13 09:48:57;;;;;;;62.13;21.13;;;;;;;3.40;84.50;103941.97;3582381;40;20449;-62
2022/01/13 09:51:25;;;;;;;64.55;20.83;;;;;;;3.42;84.25;103947.31;3582698;40;20062;-62
2022/01/13 09:53:51;;;;;;;57.47;21.25;;;;;;;3.49;84.27;103952.78;3582631;40;20048;-62
2022/01/13 09:56:17;;;;;;;66.13;20.40;;;;;;;3.47;84.89;103946.53;3579805;40;20283;-63
2022/01/13 09:58:44;;;;;;;68.80;22.52;;;;;;;3.54;84.26;103952.84;3580289;40;20048;-63
2022/01/13 10:01:11;;;;;;;71.28;20.98;;;;;;;3.58;84.40;103957.34;3582328;40;20044;-63
2022/01/13 10:03:37;;;;;;;81.70;21.27;;;;;;;3.55;84.30;103951.09;3581242;40;20060;-62
2022/01/13 10:06:14;;;;;;;58.78;20.95;;;;;;;3.59;84.47;103960.94;3581254;40;20062;-62
2022/01/13 10:08:49;;;;;;;62.65;21.50;;;;;;;3.59;84.19;103952.97;3582689;40;20052;-63
2022/01/13 10:11:42;;;;;;;63.40;18.83;;;;;;;3.60;84.38;103947.66;3583769;40;20421;-64
2022/01/13 10:16:56;;;;;;;52.17;20.42;;;;;;;3.69;84.60;103958.44;3583004;40;20725;-64
2022/01/13 10:19:44;;;;;;;52.80;19.45;;;;;;;3.68;84.01;103958.44;3584249;40;20091;-62
2022/01/13 10:22:20;;;;;;;49.30;20.52;;;;;;;3.68;84.04;103953.13;3579672;40;20056;-62
2022/01/13 10:24:52;;;;;;;63.33;20.73;;;;;;;3.69;84.49;103950.47;3583408;40;20048;-62
2022/01/13 10:27:43;;;;;;;64.75;21.83;;;;;;;3.74;84.04;103955.84;3581012;40;20084;-63
2022/01/13 10:30:17;;;;;;;48.92;18.88;;;;;;;3.78;84.11;103947.06;3580260;40;20068;-63
2022/01/13 10:32:45;;;;;;;63.97;20.55;;;;;;;3.80;84.62;103953.28;3570885;40;20376;-62
2022/01/13 10:35:15;;;;;;;59.78;19.67;;;;;;;3.79;84.24;103950.63;3582061;40;20387;-63
2022/01/13 10:37:57;;;;;;;48.47;19.83;;;;;;;3.80;83.82;103960.38;3583666;40;20312;-61
2022/01/13 10:40:30;;;;;;;57.53;19.95;;;;;;;3.78;84.13;103955.06;3582546;40;20127;-62
2022/01/13 10:45:37;;;;;;;57.65;19.30;;;;;;;3.84;83.10;103963.16;3583983;40;20408;-63
2022/01/13 10:48:13;;;;;;;53.60;20.08;;;;;;;3.84;83.51;103962.25;3581499;40;20671;-63
2022/01/13 10:50:46;;;;;;;57.97;21.42;;;;;;;3.87;83.82;103949.88;3580329;40;20088;-63
2022/01/13 10:53:25;;;;;;;59.15;20.80;;;;;;;3.84;83.23;103952.50;3580532;40;20414;-63
2022/01/13 10:55:54;;;;;;;53.80;19.83;;;;;;;3.85;83.82;103948.97;3583165;40;20661;-63
2022/01/13 10:58:52;;;;;;;48.38;19.35;;;;;;;3.84;83.34;103938.31;3580884;40;20075;-62
2022/01/13 11:01:18;;;;;;;59.13;18.08;;;;;;;3.88;83.18;103943.69;3582965;40;20052;-62
2022/01/13 11:03:47;;;;;;;48.97;19.30;;;;;;;3.89;83.08;103944.56;3583500;40;20064;-63
2022/01/13 11:06:13;;;;;;;51.03;19.13;;;;;;;3.87;83.03;103933.94;3583152;40;20122;-62
2022/01/13 11:08:46;;;;;;;59.28;18.77;;;;;;;3.79;83.09;103913.38;3579838;40;20064;-62
2022/01/13 11:11:17;;;;;;;52.05;17.58;;;;;;;3.84;83.02;103922.34;3581506;40;20044;-62
2022/01/13 11:14:08;;;;;;;54.45;19.15;;;;;;;3.83;82.63;103928.50;3580562;40;20048;-63
2022/01/13 11:16:37;;;;;;;54.10;19.63;;;;;;;3.85;83.79;103930.34;3584253;40;20060;-64
2022/01/13 11:19:05;;;;;;;52.47;20.00;;;;;;;3.84;83.01;103923.22;3583322;40;20063;-63
2022/01/13 11:21:32;;;;;;;49.88;19.95;;;;;;;3.84;83.57;103923.22;3583998;40;20088;-62
2022/01/13 11:24:00;;;;;;;54.00;20.17;;;;;;;3.83;83.42;103917.88;3585425;40;20543;-62
2022/01/13 11:26:27;;;;;;;48.28;20.65;;;;;;;3.80;83.47;103905.41;3583837;40;20044;-62
2022/01/13 11:28:54;;;;;;;51.08;19.27;;;;;;;3.88;83.75;103910.88;3584568;40;20060;-62
2022/01/13 11:31:21;;;;;;;46.63;18.35;;;;;;;3.90;83.31;103911.75;3583578;40;20088;-62
2022/01/13 11:33:47;;;;;;;46.00;18.25;;;;;;;3.92;83.59;103905.59;3579860;40;20106;-64
2022/01/13 11:36:13;;;;;;;48.25;19.77;;;;;;;3.90;83.36;103896.72;3583102;40;20064;-63
2022/01/13 11:38:58;;;;;;;52.60;20.60;;;;;;;3.97;83.35;103900.38;3582889;40;20419;-63
2022/01/13 11:41:24;;;;;;;58.70;19.13;;;;;;;3.76;82.72;103874.31;3584777;40;20125;-63
2022/01/13 11:43:50;;;;;;;48.00;17.95;;;;;;;3.97;82.71;103903.03;3580406;40;20048;-63
2022/01/13 11:46:26;;;;;;;57.72;19.63;;;;;;;3.95;83.12;103903.00;3582455;40;20048;-63
2022/01/13 11:49:19;;;;;;;48.40;18.73;;;;;;;3.95;83.10;103918.94;3582736;40;20114;-63
2022/01/13 11:52:02;;;;;;;51.10;18.45;;;;;;;3.93;83.18;103910.06;3582492;40;20040;-64
2022/01/13 11:54:34;;;;;;;49.50;19.00;;;;;;;3.95;83.65;103907.41;3582734;40;20044;-63